sensor_id;sensor_type;location;lat;lon;timestamp;pressure;altitude;pressure_sealevel;temperature;humidity
43818;BME280;29868;47.360;18.984;2023-07-31T00:00:24;63422.69;;;18.53;100.00
43818;BME280;29868;47.360;18.984;2023-07-31T00:02:49;63417.66;;;18.56;100.00
43818;BME280;29868;47.360;18.984;2023-07-31T00:05:15;63408.47;;;18.45;100.00
43818;BME280;29868;47.360;18.984;2023-07-31T00:07:40;63390.47;;;18.29;100.00
43818;BME280;29868;47.360;18.984;2023-07-31T00:10:05;63377.31;;;18.14;100.00
43818;BME280;29868;47.360;18.984;2023-07-31T00:12:31;63393.06;;;18.29;100.00
43818;BME280;29868;47.360;18.984;2023-07-31T00:14:56;63390.06;;;18.23;100.00
43818;BME280;29868;47.360;18.984;2023-07-31T00:17:21;63399.47;;;18.37;100.00
43818;BME280;29868;47.360;18.984;2023-07-31T00:19:47;63387.78;;;18.21;100.00
43818;BME280;29868;47.360;18.984;2023-07-31T00:22:14;63406.56;;;18.41;100.00
43818;BME280;29868;47.360;18.984;2023-07-31T00:24:39;63398.00;;;18.38;100.00
43818;BME280;29868;47.360;18.984;2023-07-31T00:27:04;63414.81;;;18.46;100.00
43818;BME280;29868;47.360;18.984;2023-07-31T00:29:30;63407.72;;;18.42;100.00
43818;BME280;29868;47.360;18.984;2023-07-31T00:31:55;63423.09;;;18.58;100.00
43818;BME280;29868;47.360;18.984;2023-07-31T00:34:21;63427.97;;;18.60;100.00
43818;BME280;29868;47.360;18.984;2023-07-31T00:36:46;63436.97;;;18.68;100.00
43818;BME280;29868;47.360;18.984;2023-07-31T00:39:11;63435.28;;;18.67;100.00
43818;BME280;29868;47.360;18.984;2023-07-31T00:41:36;63439.56;;;18.68;100.00
43818;BME280;29868;47.360;18.984;2023-07-31T00:44:02;63416.16;;;18.50;100.00
43818;BME280;29868;47.360;18.984;2023-07-31T00:46:27;63409.59;;;18.46;100.00
43818;BME280;29868;47.360;18.984;2023-07-31T00:48:52;63412.41;;;18.48;100.00
43818;BME280;29868;47.360;18.984;2023-07-31T00:51:18;63411.09;;;18.45;100.00
43818;BME280;29868;47.360;18.984;2023-07-31T00:53:43;63391.59;;;18.30;100.00
43818;BME280;29868;47.360;18.984;2023-07-31T00:56:08;63385.63;;;18.27;100.00
43818;BME280;29868;47.360;18.984;2023-07-31T00:58:35;63387.25;;;18.21;100.00
43818;BME280;29868;47.360;18.984;2023-07-31T01:01:00;63367.97;;;18.08;100.00
43818;BME280;29868;47.360;18.984;2023-07-31T01:03:25;63359.31;;;17.98;100.00
43818;BME280;29868;47.360;18.984;2023-07-31T01:10:59;63360.25;;;17.96;100.00
43818;BME280;29868;47.360;18.984;2023-07-31T01:13:27;63347.16;;;17.89;100.00
43818;BME280;29868;47.360;18.984;2023-07-31T01:15:53;63329.72;;;17.73;100.00
43818;BME280;29868;47.360;18.984;2023-07-31T01:18:18;63331.97;;;17.75;100.00
43818;BME280;29868;47.360;18.984;2023-07-31T01:20:44;63337.75;;;17.76;100.00
43818;BME280;29868;47.360;18.984;2023-07-31T01:28:25;63334.03;;;17.75;100.00
43818;BME280;29868;47.360;18.984;2023-07-31T01:30:52;63320.72;;;17.65;100.00
43818;BME280;29868;47.360;18.984;2023-07-31T01:33:20;63337.94;;;17.79;100.00
43818;BME280;29868;47.360;18.984;2023-07-31T01:35:45;63312.84;;;17.58;100.00
43818;BME280;29868;47.360;18.984;2023-07-31T01:38:12;63318.81;;;17.61;100.00
43818;BME280;29868;47.360;18.984;2023-07-31T01:40:40;63325.78;;;17.70;100.00
43818;BME280;29868;47.360;18.984;2023-07-31T01:43:06;63332.88;;;17.74;100.00
43818;BME280;29868;47.360;18.984;2023-07-31T01:45:31;63314.53;;;17.60;100.00
43818;BME280;29868;47.360;18.984;2023-07-31T01:47:56;63317.69;;;17.60;100.00
43818;BME280;29868;47.360;18.984;2023-07-31T01:50:21;63306.09;;;17.52;100.00
43818;BME280;29868;47.360;18.984;2023-07-31T01:52:47;63307.78;;;17.54;100.00
43818;BME280;29868;47.360;18.984;2023-07-31T01:55:12;63301.59;;;17.48;100.00
43818;BME280;29868;47.360;18.984;2023-07-31T01:57:37;63297.09;;;17.44;100.00
43818;BME280;29868;47.360;18.984;2023-07-31T02:00:03;63334.22;;;17.78;100.00
43818;BME280;29868;47.360;18.984;2023-07-31T02:02:28;63344.16;;;17.84;100.00
43818;BME280;29868;47.360;18.984;2023-07-31T02:04:53;63334.56;;;17.75;100.00
43818;BME280;29868;47.360;18.984;2023-07-31T02:07:19;63342.66;;;17.85;100.00
43818;BME280;29868;47.360;18.984;2023-07-31T02:09:44;63341.34;;;17.82;100.00
43818;BME280;29868;47.360;18.984;2023-07-31T02:12:09;63332.31;;;17.73;100.00
43818;BME280;29868;47.360;18.984;2023-07-31T02:14:34;63336.84;;;17.78;100.00
43818;BME280;29868;47.360;18.984;2023-07-31T02:17:00;63332.31;;;17.73;100.00
43818;BME280;29868;47.360;18.984;2023-07-31T02:19:25;63347.16;;;17.89;100.00
43818;BME280;29868;47.360;18.984;2023-07-31T02:21:50;63345.47;;;17.88;100.00
43818;BME280;29868;47.360;18.984;2023-07-31T02:24:15;63350.13;;;17.87;100.00
43818;BME280;29868;47.360;18.984;2023-07-31T02:26:41;63325.97;;;17.72;100.00
43818;BME280;29868;47.360;18.984;2023-07-31T02:29:07;63339.63;;;17.80;100.00
43818;BME280;29868;47.360;18.984;2023-07-31T02:31:32;63347.16;;;17.89;100.00
43818;BME280;29868;47.360;18.984;2023-07-31T02:33:58;63369.81;;;18.05;100.00
43818;BME280;29868;47.360;18.984;2023-07-31T02:36:23;63372.06;;;18.07;100.00
43818;BME280;29868;47.360;18.984;2023-07-31T02:38:48;63379.91;;;18.14;100.00
43818;BME280;29868;47.360;18.984;2023-07-31T02:41:13;63384.28;;;18.23;100.00
43818;BME280;29868;47.360;18.984;2023-07-31T02:43:39;63387.25;;;18.21;100.00
43818;BME280;29868;47.360;18.984;2023-07-31T02:46:04;63389.34;;;18.28;100.00
43818;BME280;29868;47.360;18.984;2023-07-31T02:48:30;63404.31;;;18.39;100.00
43818;BME280;29868;47.360;18.984;2023-07-31T02:50:55;63399.47;;;18.37;100.00
43818;BME280;29868;47.360;18.984;2023-07-31T02:53:20;63405.44;;;18.40;100.00
43818;BME280;29868;47.360;18.984;2023-07-31T02:55:46;63415.59;;;18.49;100.00
43818;BME280;29868;47.360;18.984;2023-07-31T02:58:12;63421.22;;;18.54;100.00
43818;BME280;29868;47.360;18.984;2023-07-31T03:00:41;63418.38;;;18.52;100.00
43818;BME280;29868;47.360;18.984;2023-07-31T03:03:06;63422.13;;;18.53;100.00
43818;BME280;29868;47.360;18.984;2023-07-31T03:05:32;63423.47;;;18.56;100.00
43818;BME280;29868;47.360;18.984;2023-07-31T03:07:57;63426.06;;;18.56;100.00
43818;BME280;29868;47.360;18.984;2023-07-31T03:10:22;63401.16;;;18.38;100.00
43818;BME280;29868;47.360;18.984;2023-07-31T03:12:47;63407.34;;;18.44;100.00
43818;BME280;29868;47.360;18.984;2023-07-31T03:15:13;63411.09;;;18.45;100.00
43818;BME280;29868;47.360;18.984;2023-07-31T03:17:38;63405.09;;;18.42;100.00
43818;BME280;29868;47.360;18.984;2023-07-31T03:20:03;63406.78;;;18.43;100.00
43818;BME280;29868;47.360;18.984;2023-07-31T03:22:29;63417.81;;;18.51;100.00
43818;BME280;29868;47.360;18.984;2023-07-31T03:24:54;63417.81;;;18.51;100.00
43818;BME280;29868;47.360;18.984;2023-07-31T03:27:19;63418.94;;;18.52;100.00
43818;BME280;29868;47.360;18.984;2023-07-31T03:29:45;63418.03;;;18.54;100.00
43818;BME280;29868;47.360;18.984;2023-07-31T03:32:10;63424.38;;;18.55;100.00
43818;BME280;29868;47.360;18.984;2023-07-31T03:34:35;63426.63;;;18.57;100.00
43818;BME280;29868;47.360;18.984;2023-07-31T03:37:01;63418.59;;;18.54;100.00
43818;BME280;29868;47.360;18.984;2023-07-31T03:39:26;63415.22;;;18.51;100.00
43818;BME280;29868;47.360;18.984;2023-07-31T03:41:51;63424.59;;;18.57;100.00
43818;BME280;29868;47.360;18.984;2023-07-31T03:44:17;63438.09;;;18.69;100.00
43818;BME280;29868;47.360;18.984;2023-07-31T03:46:42;63448.59;;;18.77;100.00
43818;BME280;29868;47.360;18.984;2023-07-31T03:49:07;63449.00;;;18.82;100.00
43818;BME280;29868;47.360;18.984;2023-07-31T03:51:32;63449.00;;;18.82;100.00
43818;BME280;29868;47.360;18.984;2023-07-31T03:53:58;63456.66;;;18.86;100.00
43818;BME280;29868;47.360;18.984;2023-07-31T03:56:23;63456.88;;;18.89;100.00
43818;BME280;29868;47.360;18.984;2023-07-31T03:58:48;63462.31;;;18.91;100.00
43818;BME280;29868;47.360;18.984;2023-07-31T04:01:13;63476.03;;;19.06;100.00
43818;BME280;29868;47.360;18.984;2023-07-31T04:03:39;63478.28;;;19.08;100.00
43818;BME280;29868;47.360;18.984;2023-07-31T04:06:04;63495.53;;;19.22;100.00
43818;BME280;29868;47.360;18.984;2023-07-31T04:08:29;63493.69;;;19.25;100.00
43818;BME280;29868;47.360;18.984;2023-07-31T04:10:55;63497.78;;;19.24;100.00
43818;BME280;29868;47.360;18.984;2023-07-31T04:13:21;63518.97;;;19.40;100.00
43818;BME280;29868;47.360;18.984;2023-07-31T04:15:49;63528.94;;;19.54;100.00
43818;BME280;29868;47.360;18.984;2023-07-31T04:18:18;63565.03;;;19.87;100.00
43818;BME280;29868;47.360;18.984;2023-07-31T04:20:43;63609.69;;;20.23;100.00
43818;BME280;29868;47.360;18.984;2023-07-31T04:23:08;63645.25;;;20.55;100.00
43818;BME280;29868;47.360;18.984;2023-07-31T04:25:33;63639.25;;;20.52;100.00
43818;BME280;29868;47.360;18.984;2023-07-31T04:28:00;63627.75;;;20.39;100.00
43818;BME280;29868;47.360;18.984;2023-07-31T04:30:25;63642.41;;;20.52;100.00
43818;BME280;29868;47.360;18.984;2023-07-31T04:32:50;63627.75;;;20.39;100.00
43818;BME280;29868;47.360;18.984;2023-07-31T04:35:16;63616.88;;;20.34;100.00
43818;BME280;29868;47.360;18.984;2023-07-31T04:37:41;63638.31;;;20.53;100.00
43818;BME280;29868;47.360;18.984;2023-07-31T04:40:06;63710.84;;;21.17;100.00
43818;BME280;29868;47.360;18.984;2023-07-31T04:42:32;63723.63;;;21.26;100.00
43818;BME280;29868;47.360;18.984;2023-07-31T04:44:57;63704.66;;;21.11;100.00
43818;BME280;29868;47.360;18.984;2023-07-31T04:47:22;63693.94;;;21.01;100.00
43818;BME280;29868;47.360;18.984;2023-07-31T04:49:48;63683.97;;;20.95;100.00
43818;BME280;29868;47.360;18.984;2023-07-31T04:52:13;63714.25;;;21.20;100.00
43818;BME280;29868;47.360;18.984;2023-07-31T04:54:38;63717.06;;;21.22;100.00
43818;BME280;29868;47.360;18.984;2023-07-31T04:57:04;63710.84;;;21.17;100.00
43818;BME280;29868;47.360;18.984;2023-07-31T04:59:29;63745.88;;;21.48;100.00
43818;BME280;29868;47.360;18.984;2023-07-31T05:01:56;63754.53;;;21.58;100.00
43818;BME280;29868;47.360;18.984;2023-07-31T05:04:21;63810.00;;;22.04;100.00
43818;BME280;29868;47.360;18.984;2023-07-31T05:06:47;63983.50;;;23.61;100.00
43818;BME280;29868;47.360;18.984;2023-07-31T05:09:12;64251.28;;;26.02;100.00
43818;BME280;29868;47.360;18.984;2023-07-31T05:11:38;64474.78;;;28.03;100.00
43818;BME280;29868;47.360;18.984;2023-07-31T05:14:05;64563.38;;;28.83;96.00
43818;BME280;29868;47.360;18.984;2023-07-31T05:16:30;64503.56;;;28.27;92.37
43818;BME280;29868;47.360;18.984;2023-07-31T05:18:55;64464.19;;;27.89;87.49
43818;BME280;29868;47.360;18.984;2023-07-31T05:21:21;64275.66;;;26.24;90.56
43818;BME280;29868;47.360;18.984;2023-07-31T05:23:46;64185.19;;;25.45;98.64
43818;BME280;29868;47.360;18.984;2023-07-31T05:26:12;64123.06;;;24.84;100.00
43818;BME280;29868;47.360;18.984;2023-07-31T05:28:38;64135.72;;;24.98;99.40
43818;BME280;29868;47.360;18.984;2023-07-31T05:31:03;64200.09;;;25.54;88.98
43818;BME280;29868;47.360;18.984;2023-07-31T05:33:29;64247.13;;;25.96;83.81
43818;BME280;29868;47.360;18.984;2023-07-31T05:35:54;64306.66;;;26.50;75.79
43818;BME280;29868;47.360;18.984;2023-07-31T05:38:20;64096.09;;;24.62;80.17
43818;BME280;29868;47.360;18.984;2023-07-31T05:40:45;63913.03;;;22.99;91.05
43818;BME280;29868;47.360;18.984;2023-07-31T05:43:11;63874.75;;;22.60;97.40
43818;BME280;29868;47.360;18.984;2023-07-31T05:45:36;63793.63;;;21.89;98.46
43818;BME280;29868;47.360;18.984;2023-07-31T05:48:02;63829.78;;;22.22;96.28
43818;BME280;29868;47.360;18.984;2023-07-31T05:50:28;63963.16;;;23.42;86.65
43818;BME280;29868;47.360;18.984;2023-07-31T05:52:53;63951.84;;;23.32;84.86
43818;BME280;29868;47.360;18.984;2023-07-31T05:55:18;64025.94;;;23.99;83.21
43818;BME280;29868;47.360;18.984;2023-07-31T05:57:43;64149.31;;;25.10;76.56
43818;BME280;29868;47.360;18.984;2023-07-31T06:00:11;64265.63;;;26.17;70.09
43818;BME280;29868;47.360;18.984;2023-07-31T06:02:36;64363.94;;;27.01;65.72
43818;BME280;29868;47.360;18.984;2023-07-31T06:05:02;64183.28;;;25.41;64.45
43818;BME280;29868;47.360;18.984;2023-07-31T06:07:29;64225.03;;;25.76;64.79
43818;BME280;29868;47.360;18.984;2023-07-31T06:09:54;64285.88;;;26.33;60.29
43818;BME280;29868;47.360;18.984;2023-07-31T06:12:20;64398.16;;;27.34;56.16
43818;BME280;29868;47.360;18.984;2023-07-31T06:14:45;64441.28;;;27.73;53.97
43818;BME280;29868;47.360;18.984;2023-07-31T06:17:11;64590.47;;;29.05;50.72
43818;BME280;29868;47.360;18.984;2023-07-31T06:19:36;64728.06;;;30.28;46.89
43818;BME280;29868;47.360;18.984;2023-07-31T06:22:01;64879.06;;;31.66;45.08
43818;BME280;29868;47.360;18.984;2023-07-31T06:24:27;64850.81;;;31.36;42.49
43818;BME280;29868;47.360;18.984;2023-07-31T06:26:53;64751.97;;;30.50;45.60
43818;BME280;29868;47.360;18.984;2023-07-31T06:29:18;64836.19;;;31.25;42.62
43818;BME280;29868;47.360;18.984;2023-07-31T06:31:43;64921.44;;;32.00;41.20
43818;BME280;29868;47.360;18.984;2023-07-31T06:34:09;64811.72;;;31.04;41.50
43818;BME280;29868;47.360;18.984;2023-07-31T06:36:34;64644.66;;;29.56;46.45
43818;BME280;29868;47.360;18.984;2023-07-31T06:38:59;64450.94;;;27.82;48.96
43818;BME280;29868;47.360;18.984;2023-07-31T06:41:25;64449.25;;;27.80;49.87
43818;BME280;29868;47.360;18.984;2023-07-31T06:43:50;64528.91;;;28.47;49.71
43818;BME280;29868;47.360;18.984;2023-07-31T06:46:15;64434.28;;;27.64;51.00
43818;BME280;29868;47.360;18.984;2023-07-31T06:48:41;64246.75;;;25.98;53.54
43818;BME280;29868;47.360;18.984;2023-07-31T06:51:06;64216.72;;;25.71;54.84
43818;BME280;29868;47.360;18.984;2023-07-31T06:53:31;64213.31;;;25.68;55.54
43818;BME280;29868;47.360;18.984;2023-07-31T06:55:56;64340.88;;;26.83;53.01
43818;BME280;29868;47.360;18.984;2023-07-31T06:58:22;64434.47;;;27.67;52.33
43818;BME280;29868;47.360;18.984;2023-07-31T07:00:47;64432.97;;;27.68;51.09
43818;BME280;29868;47.360;18.984;2023-07-31T07:03:14;64442.78;;;27.72;50.13
43818;BME280;29868;47.360;18.984;2023-07-31T07:05:39;64463.25;;;27.91;48.42
43818;BME280;29868;47.360;18.984;2023-07-31T07:08:05;64454.94;;;27.85;49.70
43818;BME280;29868;47.360;18.984;2023-07-31T07:10:30;64518.53;;;28.43;49.76
43818;BME280;29868;47.360;18.984;2023-07-31T07:12:55;64428.03;;;27.59;49.99
43818;BME280;29868;47.360;18.984;2023-07-31T07:15:21;64302.88;;;26.49;53.33
43818;BME280;29868;47.360;18.984;2023-07-31T07:17:46;64246.19;;;25.98;55.82
43818;BME280;29868;47.360;18.984;2023-07-31T07:20:11;64311.19;;;26.54;54.13
43818;BME280;29868;47.360;18.984;2023-07-31T07:22:37;64315.72;;;26.58;55.00
43818;BME280;29868;47.360;18.984;2023-07-31T07:25:03;64267.91;;;26.19;55.80
43818;BME280;29868;47.360;18.984;2023-07-31T07:27:28;64286.22;;;26.31;54.14
43818;BME280;29868;47.360;18.984;2023-07-31T07:29:54;64266.78;;;26.18;52.44
43818;BME280;29868;47.360;18.984;2023-07-31T07:32:19;64203.69;;;25.59;53.61
43818;BME280;29868;47.360;18.984;2023-07-31T07:34:45;64234.84;;;25.87;53.48
43818;BME280;29868;47.360;18.984;2023-07-31T07:37:11;64184.25;;;25.46;53.77
43818;BME280;29868;47.360;18.984;2023-07-31T07:39:36;64192.75;;;25.54;53.33
43818;BME280;29868;47.360;18.984;2023-07-31T07:42:01;64188.38;;;25.45;54.53
43818;BME280;29868;47.360;18.984;2023-07-31T07:44:26;64188.75;;;25.43;54.67
43818;BME280;29868;47.360;18.984;2023-07-31T07:46:52;64163.50;;;25.23;55.52
43818;BME280;29868;47.360;18.984;2023-07-31T07:49:17;64139.69;;;25.02;55.99
43818;BME280;29868;47.360;18.984;2023-07-31T07:51:42;64117.78;;;24.84;55.99
43818;BME280;29868;47.360;18.984;2023-07-31T07:54:08;64121.75;;;24.88;54.64
43818;BME280;29868;47.360;18.984;2023-07-31T07:56:33;64098.91;;;24.65;55.31
43818;BME280;29868;47.360;18.984;2023-07-31T07:58:58;64111.75;;;24.81;56.71
43818;BME280;29868;47.360;18.984;2023-07-31T08:01:24;64137.03;;;25.02;56.53
43818;BME280;29868;47.360;18.984;2023-07-31T08:03:49;64143.09;;;25.05;54.71
43818;BME280;29868;47.360;18.984;2023-07-31T08:06:14;64128.91;;;24.92;53.76
43818;BME280;29868;47.360;18.984;2023-07-31T08:08:40;64086.13;;;24.56;54.72
43818;BME280;29868;47.360;18.984;2023-07-31T08:11:05;64135.16;;;24.97;54.50
43818;BME280;29868;47.360;18.984;2023-07-31T08:13:30;64129.13;;;24.94;54.49
43818;BME280;29868;47.360;18.984;2023-07-31T08:15:56;64102.53;;;24.70;54.86
43818;BME280;29868;47.360;18.984;2023-07-31T08:18:21;64106.84;;;24.72;55.54
43818;BME280;29868;47.360;18.984;2023-07-31T08:20:47;64044.41;;;24.20;53.89
43818;BME280;29868;47.360;18.984;2023-07-31T08:23:12;64029.50;;;24.04;54.61
43818;BME280;29868;47.360;18.984;2023-07-31T08:25:38;64045.34;;;24.19;53.02
43818;BME280;29868;47.360;18.984;2023-07-31T08:28:03;64068.34;;;24.37;54.36
43818;BME280;29868;47.360;18.984;2023-07-31T08:30:29;64068.34;;;24.37;53.83
43818;BME280;29868;47.360;18.984;2023-07-31T08:32:55;64074.03;;;24.42;53.09
43818;BME280;29868;47.360;18.984;2023-07-31T08:35:20;64067.22;;;24.36;53.79
43818;BME280;29868;47.360;18.984;2023-07-31T08:37:45;64096.28;;;24.65;54.17
43818;BME280;29868;47.360;18.984;2023-07-31T08:40:11;64088.38;;;24.58;53.47
43818;BME280;29868;47.360;18.984;2023-07-31T08:42:45;64116.09;;;24.83;53.51
43818;BME280;29868;47.360;18.984;2023-07-31T08:45:17;64053.06;;;24.23;54.28
43818;BME280;29868;47.360;18.984;2023-07-31T08:47:47;64101.56;;;24.65;54.21
43818;BME280;29868;47.360;18.984;2023-07-31T08:50:13;64112.50;;;24.77;54.35
43818;BME280;29868;47.360;18.984;2023-07-31T08:52:39;64118.94;;;24.85;53.82
43818;BME280;29868;47.360;18.984;2023-07-31T08:55:05;64170.66;;;25.27;53.46
43818;BME280;29868;47.360;18.984;2023-07-31T08:57:30;64185.00;;;25.42;50.01
43818;BME280;29868;47.360;18.984;2023-07-31T08:59:56;64121.56;;;24.85;50.15
43818;BME280;29868;47.360;18.984;2023-07-31T09:02:22;64114.22;;;24.79;50.08
43818;BME280;29868;47.360;18.984;2023-07-31T09:04:50;64127.44;;;24.93;50.62
43818;BME280;29868;47.360;18.984;2023-07-31T09:07:15;64147.97;;;25.07;50.59
43818;BME280;29868;47.360;18.984;2023-07-31T09:09:41;64201.59;;;25.60;51.04
43818;BME280;29868;47.360;18.984;2023-07-31T09:12:07;64174.78;;;25.33;50.38
43818;BME280;29868;47.360;18.984;2023-07-31T09:14:32;64127.63;;;24.95;50.22
43818;BME280;29868;47.360;18.984;2023-07-31T09:16:58;64120.63;;;24.87;50.90
43818;BME280;29868;47.360;18.984;2023-07-31T09:19:29;64098.56;;;24.67;51.87
43818;BME280;29868;47.360;18.984;2023-07-31T09:21:54;64135.16;;;24.97;51.20
43818;BME280;29868;47.360;18.984;2023-07-31T09:24:30;64153.84;;;25.14;52.50
43818;BME280;29868;47.360;18.984;2023-07-31T09:26:56;64154.22;;;25.12;51.43
43818;BME280;29868;47.360;18.984;2023-07-31T09:29:22;64159.72;;;25.22;50.68
43818;BME280;29868;47.360;18.984;2023-07-31T09:31:47;64189.31;;;25.44;50.33
43818;BME280;29868;47.360;18.984;2023-07-31T09:34:12;64173.47;;;25.30;50.81
43818;BME280;29868;47.360;18.984;2023-07-31T09:36:41;64177.84;;;25.38;50.41
43818;BME280;29868;47.360;18.984;2023-07-31T09:39:10;64240.88;;;25.90;50.54
43818;BME280;29868;47.360;18.984;2023-07-31T09:41:37;64166.69;;;25.23;48.24
43818;BME280;29868;47.360;18.984;2023-07-31T09:44:03;64151.03;;;25.12;48.83
43818;BME280;29868;47.360;18.984;2023-07-31T09:46:28;64188.38;;;25.45;49.28
43818;BME280;29868;47.360;18.984;2023-07-31T09:49:02;64204.44;;;25.62;49.87
43818;BME280;29868;47.360;18.984;2023-07-31T09:51:28;64169.34;;;25.31;47.93
43818;BME280;29868;47.360;18.984;2023-07-31T09:53:56;64151.78;;;25.15;49.03
43818;BME280;29868;47.360;18.984;2023-07-31T09:56:21;64162.91;;;25.22;49.16
43818;BME280;29868;47.360;18.984;2023-07-31T09:58:47;64150.66;;;25.14;50.70
43818;BME280;29868;47.360;18.984;2023-07-31T10:01:13;64136.28;;;24.98;49.43
43818;BME280;29868;47.360;18.984;2023-07-31T10:03:38;64112.50;;;24.77;50.70
43818;BME280;29868;47.360;18.984;2023-07-31T10:06:04;64147.25;;;25.11;50.72
43818;BME280;29868;47.360;18.984;2023-07-31T10:08:32;64193.69;;;25.53;49.39
43818;BME280;29868;47.360;18.984;2023-07-31T10:11:01;64233.16;;;25.86;51.19
43818;BME280;29868;47.360;18.984;2023-07-31T10:13:27;64198.22;;;25.57;49.10
43818;BME280;29868;47.360;18.984;2023-07-31T10:15:53;64221.81;;;25.76;49.27
43818;BME280;29868;47.360;18.984;2023-07-31T10:18:19;64230.31;;;25.83;49.20
43818;BME280;29868;47.360;18.984;2023-07-31T10:20:45;64230.91;;;25.84;48.12
43818;BME280;29868;47.360;18.984;2023-07-31T10:23:11;64217.28;;;25.71;47.62
43818;BME280;29868;47.360;18.984;2023-07-31T10:25:38;64169.16;;;25.28;48.33
43818;BME280;29868;47.360;18.984;2023-07-31T10:28:04;64173.47;;;25.30;48.18
43818;BME280;29868;47.360;18.984;2023-07-31T10:30:29;64172.16;;;25.33;48.71
43818;BME280;29868;47.360;18.984;2023-07-31T10:32:55;64199.72;;;25.56;49.18
43818;BME280;29868;47.360;18.984;2023-07-31T10:35:21;64220.09;;;25.74;49.89
43818;BME280;29868;47.360;18.984;2023-07-31T10:37:47;64250.34;;;26.04;49.44
43818;BME280;29868;47.360;18.984;2023-07-31T10:40:15;64247.31;;;25.99;48.23
43818;BME280;29868;47.360;18.984;2023-07-31T10:42:50;64222.38;;;25.76;48.50
43818;BME280;29868;47.360;18.984;2023-07-31T10:45:50;64249.22;;;26.03;48.92
43818;BME280;29868;47.360;18.984;2023-07-31T10:48:15;64209.34;;;25.64;48.07
43818;BME280;29868;47.360;18.984;2023-07-31T10:50:50;64226.16;;;25.77;49.09
43818;BME280;29868;47.360;18.984;2023-07-31T10:53:29;64230.31;;;25.83;48.88
43818;BME280;29868;47.360;18.984;2023-07-31T10:56:01;64243.94;;;25.95;48.60
43818;BME280;29868;47.360;18.984;2023-07-31T10:58:27;64250.16;;;26.01;47.91
43818;BME280;29868;47.360;18.984;2023-07-31T11:00:56;64238.25;;;25.90;47.89
43818;BME280;29868;47.360;18.984;2023-07-31T11:03:24;64275.28;;;26.26;48.47
43818;BME280;29868;47.360;18.984;2023-07-31T11:08:24;64260.38;;;26.10;46.49
43818;BME280;29868;47.360;18.984;2023-07-31T11:10:51;64289.84;;;26.37;46.45
43818;BME280;29868;47.360;18.984;2023-07-31T11:13:29;64233.16;;;25.86;46.86
43818;BME280;29868;47.360;18.984;2023-07-31T11:15:54;64275.84;;;26.27;46.89
43818;BME280;29868;47.360;18.984;2023-07-31T11:18:20;64306.09;;;26.49;45.80
43818;BME280;29868;47.360;18.984;2023-07-31T11:20:45;64341.03;;;26.78;46.00
43818;BME280;29868;47.360;18.984;2023-07-31T11:23:11;64277.94;;;26.26;45.89
43818;BME280;29868;47.360;18.984;2023-07-31T11:25:37;64297.97;;;26.47;46.59
43818;BME280;29868;47.360;18.984;2023-07-31T11:28:06;64314.41;;;26.54;44.89
43818;BME280;29868;47.360;18.984;2023-07-31T11:30:32;64301.19;;;26.47;44.02
43818;BME280;29868;47.360;18.984;2023-07-31T11:32:57;64313.09;;;26.58;43.80
43818;BME280;29868;47.360;18.984;2023-07-31T11:35:22;64322.16;;;26.66;43.49
43818;BME280;29868;47.360;18.984;2023-07-31T11:37:48;64317.41;;;26.59;44.14
43818;BME280;29868;47.360;18.984;2023-07-31T11:40:14;64354.28;;;26.92;44.09
43818;BME280;29868;47.360;18.984;2023-07-31T11:42:39;64330.47;;;26.71;43.43
43818;BME280;29868;47.360;18.984;2023-07-31T11:45:05;64315.34;;;26.60;43.28
43818;BME280;29868;47.360;18.984;2023-07-31T11:47:35;64284.91;;;26.35;43.60
43818;BME280;29868;47.360;18.984;2023-07-31T11:50:01;64293.97;;;26.43;44.00
43818;BME280;29868;47.360;18.984;2023-07-31T11:52:27;64316.84;;;26.59;41.65
43818;BME280;29868;47.360;18.984;2023-07-31T11:54:53;64259.06;;;26.14;42.65
43818;BME280;29868;47.360;18.984;2023-07-31T11:57:19;64275.09;;;26.24;43.02
43818;BME280;29868;47.360;18.984;2023-07-31T11:59:44;64315.91;;;26.60;44.45
43818;BME280;29868;47.360;18.984;2023-07-31T12:02:10;64326.69;;;26.70;42.61
43818;BME280;29868;47.360;18.984;2023-07-31T12:04:35;64319.91;;;26.64;42.99
43818;BME280;29868;47.360;18.984;2023-07-31T12:07:01;64352.97;;;26.96;42.19
43818;BME280;29868;47.360;18.984;2023-07-31T12:09:26;64361.84;;;27.02;42.19
43818;BME280;29868;47.360;18.984;2023-07-31T12:11:51;64364.28;;;26.99;42.87
43818;BME280;29868;47.360;18.984;2023-07-31T12:14:35;64359.38;;;26.97;42.17
43818;BME280;29868;47.360;18.984;2023-07-31T12:17:03;64317.06;;;26.61;41.46
43818;BME280;29868;47.360;18.984;2023-07-31T12:19:29;64345.03;;;26.89;41.89
43818;BME280;29868;47.360;18.984;2023-07-31T12:21:58;64355.41;;;26.93;42.12
43818;BME280;29868;47.360;18.984;2023-07-31T12:24:24;64365.63;;;27.03;42.11
43818;BME280;29868;47.360;18.984;2023-07-31T12:26:50;64357.13;;;26.95;40.85
43818;BME280;29868;47.360;18.984;2023-07-31T12:29:17;64362.97;;;27.03;40.94
43818;BME280;29868;47.360;18.984;2023-07-31T12:31:42;64405.53;;;27.41;41.65
43818;BME280;29868;47.360;18.984;2023-07-31T12:34:15;64353.53;;;26.97;41.61
43818;BME280;29868;47.360;18.984;2023-07-31T12:36:41;64358.44;;;26.99;41.52
43818;BME280;29868;47.360;18.984;2023-07-31T12:39:07;64377.16;;;27.15;41.28
43818;BME280;29868;47.360;18.984;2023-07-31T12:41:33;64334.06;;;26.77;40.50
43818;BME280;29868;47.360;18.984;2023-07-31T12:43:58;64361.09;;;27.06;41.81
43818;BME280;29868;47.360;18.984;2023-07-31T12:46:23;64347.84;;;26.91;42.19
43818;BME280;29868;47.360;18.984;2023-07-31T12:48:48;64370.56;;;27.12;41.76
43818;BME280;29868;47.360;18.984;2023-07-31T12:51:14;64359.78;;;27.02;41.20